Time;durP1;ratioP1;P1;durP2;ratioP2;P2;SDS_P1;SDS_P2;PMS_P1;PMS_P2;Temp;Humidity;BMP_temperature;BMP_pressure;BME280_temperature;BME280_humidity;BME280_pressure;Samples;Min_cycle;Max_cycle;Signal;HPM_P1;HPM_P2
2021/08/22 00:00:10;;;;;;;6.18;3.72;;;;;;;22.86;51.51;100570.59;5319790;27;20063;-81
2021/08/22 00:02:37;;;;;;;6.43;3.47;;;;;;;22.86;51.07;100566.09;5319761;27;20069;-81
2021/08/22 00:05:04;;;;;;;5.45;3.25;;;;;;;22.93;50.60;100571.12;5320031;27;20352;-81
2021/08/22 00:07:31;;;;;;;6.37;3.78;;;;;;;22.82;50.66;100569.88;5299798;27;20048;-81
2021/08/22 00:09:58;;;;;;;9.73;3.47;;;;;;;22.95;50.44;100566.59;5319875;27;20101;-82
2021/08/22 00:12:25;;;;;;;7.50;3.58;;;;;;;22.82;50.98;100566.34;5319706;27;20160;-82
2021/08/22 00:14:52;;;;;;;8.80;3.92;;;;;;;22.69;51.46;100563.47;5319663;27;20094;-82
2021/08/22 00:17:19;;;;;;;6.15;3.65;;;;;;;22.72;51.20;100570.47;5319670;27;20060;-82
2021/08/22 00:19:46;;;;;;;4.30;3.50;;;;;;;22.62;51.45;100568.28;5319538;27;20095;-82
2021/08/22 00:22:13;;;;;;;4.65;3.40;;;;;;;22.48;51.64;100572.63;5319454;27;20060;-82
2021/08/22 00:24:41;;;;;;;4.97;3.83;;;;;;;22.52;51.08;100563.47;5299913;27;20117;-81
2021/08/22 00:27:08;;;;;;;6.03;4.12;;;;;;;22.21;51.62;100567.78;5319891;27;20053;-82
2021/08/22 00:29:35;;;;;;;5.05;3.67;;;;;;;22.36;51.20;100560.75;5319668;27;20079;-82
2021/08/22 00:32:02;;;;;;;5.50;3.70;;;;;;;22.38;51.19;100567.78;5319792;27;20109;-81
2021/08/22 00:34:29;;;;;;;4.60;3.87;;;;;;;22.52;51.02;100569.69;5319639;27;20076;-81
2021/08/22 00:36:56;;;;;;;10.55;4.35;;;;;;;22.54;51.20;100566.97;5319856;27;20079;-82
2021/08/22 00:39:27;;;;;;;6.30;3.70;;;;;;;22.44;51.48;100566.56;5319453;27;20108;-82
2021/08/22 00:41:55;;;;;;;4.47;3.42;;;;;;;22.59;51.47;100570.22;5319890;27;20070;-81
2021/08/22 00:44:25;;;;;;;5.55;4.60;;;;;;;22.28;52.33;100562.97;5299918;27;20411;-81
2021/08/22 00:46:53;;;;;;;6.85;4.47;;;;;;;22.30;52.38;100561.94;5319635;27;20062;-82
2021/08/22 00:49:22;;;;;;;5.87;4.12;;;;;;;22.17;52.76;100566.19;5319656;27;20044;-82
2021/08/22 00:51:49;;;;;;;9.10;4.78;;;;;;;21.87;53.48;100564.09;5319631;27;20077;-81
2021/08/22 00:54:16;;;;;;;6.53;4.35;;;;;;;21.73;53.65;100569.25;5319475;27;20404;-82
2021/08/22 00:56:43;;;;;;;7.65;4.30;;;;;;;21.72;54.09;100567.53;5319392;27;20056;-81
2021/08/22 00:59:12;;;;;;;8.85;4.07;;;;;;;21.71;54.13;100561.31;5319486;27;20395;-82
2021/08/22 01:01:41;;;;;;;7.22;4.22;;;;;;;21.75;53.82;100564.69;5319732;27;20719;-82
2021/08/22 01:04:18;;;;;;;20.20;5.87;;;;;;;21.76;53.72;100561.06;5299637;27;20378;-81
2021/08/22 01:07:03;;;;;;;6.35;4.15;;;;;;;21.63;53.63;100563.50;5319589;27;20190;-82
2021/08/22 01:09:49;;;;;;;7.47;4.62;;;;;;;21.75;53.18;100562.03;5319570;27;20473;-82
2021/08/22 01:12:47;;;;;;;7.20;3.87;;;;;;;21.70;53.07;100572.06;5319550;27;20124;-82
2021/08/22 01:15:15;;;;;;;7.70;4.22;;;;;;;21.85;52.42;100567.78;5319146;27;20057;-81
2021/08/22 01:17:50;;;;;;;5.62;3.83;;;;;;;21.89;52.37;100569.37;5299883;27;20068;-82
2021/08/22 01:20:52;;;;;;;8.10;4.37;;;;;;;21.84;52.91;100566.06;5319550;27;20093;-81
2021/08/22 01:23:22;;;;;;;5.90;4.78;;;;;;;21.76;53.20;100563.75;5258597;27;20064;-81
2021/08/22 01:25:49;;;;;;;7.40;4.10;;;;;;;21.78;53.31;100564.53;5319012;27;20060;-81
2021/08/22 01:28:17;;;;;;;6.72;4.22;;;;;;;21.73;53.25;100559.41;5299672;27;20114;-81
2021/08/22 01:30:46;;;;;;;7.87;4.60;;;;;;;21.83;53.27;100567.00;5319547;27;20100;-82
2021/08/22 01:33:16;;;;;;;5.40;4.28;;;;;;;21.83;53.14;100558.97;5299641;27;20064;-81
2021/08/22 01:35:44;;;;;;;9.18;8.07;;;;;;;21.78;53.35;100567.22;5319563;27;20111;-82
2021/08/22 01:38:13;;;;;;;6.15;5.15;;;;;;;21.75;53.56;100556.69;5319326;27;20052;-81
2021/08/22 01:40:41;;;;;;;6.65;4.47;;;;;;;21.83;53.77;100558.97;5319240;27;20044;-81
2021/08/22 01:43:11;;;;;;;5.62;4.72;;;;;;;21.66;54.39;100563.34;5318933;27;20384;-81
2021/08/22 01:45:39;;;;;;;6.50;3.97;;;;;;;21.55;54.79;100553.16;5319348;27;20083;-81
2021/08/22 01:48:06;;;;;;;6.47;4.53;;;;;;;21.53;54.69;100554.19;5319524;27;20045;-81
2021/08/22 01:50:33;;;;;;;4.55;3.58;;;;;;;21.60;54.64;100562.78;5319475;27;20052;-81
2021/08/22 01:53:04;;;;;;;5.70;4.47;;;;;;;21.65;54.01;100563.41;5319201;27;20408;-82
2021/08/22 01:55:32;;;;;;;8.35;4.70;;;;;;;21.41;54.73;100558.31;5319246;27;20091;-81
2021/08/22 01:57:59;;;;;;;8.30;4.57;;;;;;;21.50;54.16;100554.31;5319294;27;20057;-81
2021/08/22 02:00:26;;;;;;;8.25;4.82;;;;;;;21.53;53.63;100557.75;5319227;27;20097;-81
2021/08/22 02:03:04;;;;;;;5.65;3.45;;;;;;;21.38;54.11;100547.78;5319339;27;20207;-82
2021/08/22 02:05:33;;;;;;;5.00;3.40;;;;;;;21.37;54.02;100555.87;5319370;27;20057;-82
2021/08/22 02:08:04;;;;;;;5.75;4.32;;;;;;;21.57;53.36;100558.44;5299484;27;20113;-82
2021/08/22 02:10:34;;;;;;;5.95;4.60;;;;;;;21.61;53.52;100561.84;5299220;27;20066;-82
2021/08/22 02:13:03;;;;;;;5.97;4.07;;;;;;;21.43;54.14;100567.13;5299533;27;20068;-81
2021/08/22 02:15:41;;;;;;;5.55;3.75;;;;;;;21.50;53.82;100552.53;5299464;27;20056;-81
2021/08/22 02:18:16;;;;;;;6.70;3.80;;;;;;;21.40;54.03;100548.56;5319091;27;20118;-81
2021/08/22 02:20:46;;;;;;;4.40;3.95;;;;;;;21.67;53.44;100554.38;5319082;27;20464;-82
2021/08/22 02:23:15;;;;;;;8.15;4.32;;;;;;;21.72;53.57;100557.69;5319153;27;20052;-81
2021/08/22 02:25:43;;;;;;;6.40;4.40;;;;;;;21.60;53.94;100558.31;5319000;27;20078;-82
2021/08/22 02:28:10;;;;;;;11.65;4.37;;;;;;;21.62;54.11;100553.75;5299356;27;20131;-81
2021/08/22 02:30:38;;;;;;;6.60;4.10;;;;;;;21.29;55.01;100554.38;5318783;27;20082;-81
2021/08/22 02:33:06;;;;;;;5.47;4.07;;;;;;;21.39;54.90;100549.53;5319122;27;20128;-81
2021/08/22 02:35:34;;;;;;;4.85;3.75;;;;;;;21.20;55.59;100544.12;5319028;27;20072;-82
2021/08/22 02:38:02;;;;;;;7.07;4.45;;;;;;;20.97;56.18;100547.91;5319825;27;20049;-81
2021/08/22 02:40:29;;;;;;;6.85;3.87;;;;;;;21.10;55.78;100553.53;5319773;27;20117;-81
2021/08/22 02:42:56;;;;;;;6.45;3.83;;;;;;;21.26;55.00;100548.31;5300258;27;20106;-81
2021/08/22 02:45:23;;;;;;;11.45;3.80;;;;;;;20.98;55.51;100551.44;5319944;27;20110;-81
2021/08/22 02:47:56;;;;;;;5.35;3.72;;;;;;;20.94;55.34;100552.50;5318618;27;20061;-81
2021/08/22 02:50:25;;;;;;;8.98;4.87;;;;;;;21.25;54.41;100551.94;5300774;27;20080;-81
2021/08/22 02:52:52;;;;;;;6.10;3.90;;;;;;;21.45;54.32;100546.56;5320557;26;20401;-81
2021/08/22 02:55:19;;;;;;;8.23;3.85;;;;;;;21.35;54.66;100547.88;5320569;27;20060;-81
2021/08/22 02:57:46;;;;;;;7.78;4.20;;;;;;;21.23;55.05;100549.34;5320351;27;20052;-81
2021/08/22 03:00:13;;;;;;;7.50;4.40;;;;;;;21.15;55.35;100546.19;5320237;27;20088;-81
2021/08/22 03:02:41;;;;;;;7.20;3.80;;;;;;;20.75;56.42;100550.69;5300320;27;20107;-81
2021/08/22 03:05:08;;;;;;;7.32;3.97;;;;;;;20.76;55.67;100547.06;5320027;27;20064;-81
2021/08/22 03:07:35;;;;;;;7.00;4.65;;;;;;;20.74;55.26;100546.31;5320162;27;20110;-81
2021/08/22 03:10:02;;;;;;;8.73;4.57;;;;;;;20.79;54.82;100548.75;5320569;27;20052;-81
2021/08/22 03:12:29;;;;;;;11.38;4.55;;;;;;;20.80;55.05;100551.38;5300145;27;20117;-82
2021/08/22 03:14:56;;;;;;;6.70;3.72;;;;;;;20.93;54.72;100548.97;5300884;27;20115;-81
2021/08/22 03:17:23;;;;;;;7.20;3.70;;;;;;;20.96;54.68;100553.31;5320643;27;20061;-81
2021/08/22 03:19:51;;;;;;;6.72;3.55;;;;;;;20.84;54.81;100552.06;5299950;27;20056;-81
2021/08/22 03:22:18;;;;;;;7.10;4.20;;;;;;;20.90;54.46;100541.13;5320382;27;20074;-82
2021/08/22 03:24:46;;;;;;;4.90;3.53;;;;;;;20.60;55.49;100551.41;5300263;27;20088;-81
2021/08/22 03:27:13;;;;;;;4.87;3.75;;;;;;;20.74;54.89;100543.62;5300411;27;20057;-81
2021/08/22 03:29:40;;;;;;;4.93;3.42;;;;;;;21.12;54.08;100541.00;5319759;27;20469;-81
2021/08/22 03:32:08;;;;;;;6.03;3.55;;;;;;;21.12;54.07;100535.66;5320021;27;20123;-82
2021/08/22 03:34:34;;;;;;;6.68;3.60;;;;;;;20.99;54.22;100539.81;5320124;27;20487;-82
2021/08/22 03:37:02;;;;;;;5.70;3.70;;;;;;;20.82;54.82;100532.59;5320103;27;20049;-81
2021/08/22 03:39:28;;;;;;;6.62;3.75;;;;;;;20.73;54.93;100539.22;5320097;27;20121;-81
2021/08/22 03:41:55;;;;;;;6.10;3.83;;;;;;;20.61;55.06;100542.44;5300716;27;20131;-82
2021/08/22 03:44:23;;;;;;;6.47;4.18;;;;;;;20.59;54.77;100539.84;5319616;27;20060;-82
2021/08/22 03:46:50;;;;;;;4.57;3.20;;;;;;;20.47;55.19;100542.16;5319987;27;20103;-81
2021/08/22 03:49:17;;;;;;;6.15;3.95;;;;;;;20.57;54.79;100539.06;5299861;27;20106;-81
2021/08/22 03:51:44;;;;;;;7.30;3.25;;;;;;;20.52;54.76;100540.16;5320283;27;20109;-82
2021/08/22 03:54:11;;;;;;;7.85;4.03;;;;;;;20.68;54.32;100543.03;5300163;27;20064;-81
2021/08/22 03:56:37;;;;;;;6.75;3.90;;;;;;;20.79;54.06;100536.25;5319513;27;20061;-81
2021/08/22 03:59:07;;;;;;;12.63;3.87;;;;;;;20.72;54.51;100539.28;5319904;27;20098;-81
2021/08/22 04:01:35;;;;;;;26.02;5.32;;;;;;;20.70;54.76;100534.00;5319896;27;20056;-81
2021/08/22 04:04:03;;;;;;;7.93;3.97;;;;;;;20.57;55.16;100541.72;5319751;27;20125;-81
2021/08/22 04:06:31;;;;;;;7.97;3.92;;;;;;;20.47;55.55;100542.16;5319938;27;20108;-82
2021/08/22 04:09:00;;;;;;;11.45;5.00;;;;;;;20.28;56.01;100547.44;5319907;27;20025;-81
2021/08/22 04:11:28;;;;;;;10.15;4.68;;;;;;;20.28;55.58;100550.97;5319974;27;20074;-81
2021/08/22 04:13:55;;;;;;;8.32;3.83;;;;;;;20.51;54.92;100543.78;5299985;27;20060;-81
2021/08/22 04:16:22;;;;;;;10.32;4.05;;;;;;;20.46;55.45;100546.63;5300984;27;20074;-81
2021/08/22 04:18:49;;;;;;;4.78;3.53;;;;;;;20.35;55.88;100543.56;5320326;27;20128;-81
2021/08/22 04:21:16;;;;;;;10.50;3.53;;;;;;;20.37;56.47;100541.72;5320683;27;20480;-82
2021/08/22 04:23:43;;;;;;;6.80;3.65;;;;;;;20.34;56.96;100545.37;5300758;27;20060;-82
2021/08/22 04:26:10;;;;;;;8.00;3.90;;;;;;;19.96;57.89;100544.34;5300560;27;20097;-82
2021/08/22 04:28:37;;;;;;;4.55;3.55;;;;;;;20.31;56.59;100541.97;5319761;27;20800;-82
2021/08/22 04:31:04;;;;;;;7.45;3.75;;;;;;;20.04;57.23;100544.91;5320251;27;20060;-82
2021/08/22 04:33:31;;;;;;;5.37;3.25;;;;;;;20.22;56.48;100542.37;5300656;27;20485;-82
2021/08/22 04:35:57;;;;;;;4.03;2.83;;;;;;;20.58;55.52;100550.59;5320095;27;20542;-82
2021/08/22 04:38:24;;;;;;;5.93;2.90;;;;;;;20.76;54.69;100552.41;5321220;27;20104;-82
2021/08/22 04:40:51;;;;;;;4.68;2.90;;;;;;;21.10;53.51;100549.06;5321279;27;20133;-81
2021/08/22 04:43:18;;;;;;;3.25;2.60;;;;;;;21.42;52.87;100548.50;5320633;27;20454;-82
2021/08/22 04:45:45;;;;;;;4.10;2.72;;;;;;;21.92;51.99;100553.16;5321945;27;20062;-82
2021/08/22 04:48:12;;;;;;;5.03;3.58;;;;;;;22.22;50.96;100546.28;5318873;27;20427;-82
2021/08/22 04:50:39;;;;;;;5.57;3.33;;;;;;;22.61;50.83;100552.28;5320152;27;20060;-82
2021/08/22 04:53:06;;;;;;;7.18;3.25;;;;;;;23.12;48.92;100545.94;5320411;27;20114;-82
2021/08/22 04:55:33;;;;;;;5.78;3.05;;;;;;;23.19;49.13;100546.47;5319926;27;20109;-81
2021/08/22 04:58:00;;;;;;;4.43;3.05;;;;;;;23.30;49.92;100545.87;5296068;27;20152;-82
2021/08/22 05:00:27;;;;;;;3.95;2.95;;;;;;;23.68;49.26;100538.31;5296395;27;20073;-82
2021/08/22 05:02:54;;;;;;;5.55;2.67;;;;;;;24.18;46.88;100545.22;5298123;27;20061;-82
2021/08/22 05:05:22;;;;;;;4.75;3.80;;;;;;;24.60;45.72;100540.88;5296583;27;20116;-82
2021/08/22 05:07:49;;;;;;;10.07;3.25;;;;;;;24.84;45.58;100534.94;5297889;27;20454;-82
2021/08/22 05:10:16;;;;;;;6.07;2.50;;;;;;;25.26;45.39;100542.09;5297621;27;20136;-83
2021/08/22 05:12:43;;;;;;;3.47;2.28;;;;;;;25.73;44.53;100537.25;5296381;27;20068;-83
2021/08/22 05:15:10;;;;;;;4.85;3.05;;;;;;;26.18;42.95;100537.84;5295924;27;20383;-83
2021/08/22 05:17:37;;;;;;;9.15;3.90;;;;;;;26.54;42.13;100542.53;5297445;27;20076;-82
2021/08/22 05:20:05;;;;;;;5.15;3.67;;;;;;;26.61;40.91;100532.19;5297470;27;20596;-82
2021/08/22 05:22:32;;;;;;;5.87;3.08;;;;;;;26.71;41.16;100535.97;5297107;27;20057;-82
2021/08/22 05:24:58;;;;;;;4.57;3.12;;;;;;;26.53;41.81;100540.78;5297134;27;20071;-82
2021/08/22 05:27:26;;;;;;;6.90;3.55;;;;;;;26.72;41.54;100541.22;5297460;27;20371;-82
2021/08/22 05:29:52;;;;;;;5.47;3.20;;;;;;;26.72;41.95;100541.22;5297102;27;20111;-82
2021/08/22 05:32:19;;;;;;;4.80;3.83;;;;;;;26.68;42.06;100550.50;5297104;27;20493;-83
2021/08/22 05:34:46;;;;;;;6.57;3.70;;;;;;;26.42;42.97;100555.00;5297234;27;20081;-82
2021/08/22 05:37:13;;;;;;;9.57;3.47;;;;;;;26.46;42.96;100551.09;5295677;27;20063;-82
2021/08/22 05:39:40;;;;;;;6.82;3.35;;;;;;;26.69;42.52;100548.69;5295575;27;20065;-82
2021/08/22 05:42:08;;;;;;;4.32;3.70;;;;;;;26.87;42.49;100536.56;5313688;27;20136;-82
2021/08/22 05:44:35;;;;;;;4.57;3.37;;;;;;;27.27;40.59;100530.16;5295376;27;20416;-81
2021/08/22 05:47:02;;;;;;;5.03;3.90;;;;;;;27.43;39.83;100528.03;5295547;27;20096;-83
2021/08/22 05:49:30;;;;;;;7.93;3.45;;;;;;;27.25;40.32;100529.41;5295499;27;20068;-82
2021/08/22 05:51:57;;;;;;;4.78;3.37;;;;;;;26.90;43.04;100541.75;5297166;27;20370;-82
2021/08/22 05:54:24;;;;;;;4.20;3.15;;;;;;;27.00;43.06;100532.97;5295642;27;20298;-81
2021/08/22 05:56:51;;;;;;;8.40;3.92;;;;;;;26.86;42.78;100545.66;5296602;27;20068;-82
2021/08/22 05:59:18;;;;;;;6.82;3.55;;;;;;;27.04;42.50;100542.59;5297344;27;20057;-82
2021/08/22 06:01:44;;;;;;;5.95;3.75;;;;;;;27.23;42.69;100532.19;5295389;27;20069;-82
2021/08/22 06:04:12;;;;;;;5.68;3.80;;;;;;;27.48;42.60;100535.81;5296986;27;20053;-81
2021/08/22 06:06:40;;;;;;;5.90;4.07;;;;;;;28.31;41.14;100538.50;5296748;27;20473;-81
2021/08/22 06:09:07;;;;;;;6.35;3.87;;;;;;;29.22;39.10;100536.75;5295460;27;20605;-82
2021/08/22 06:11:34;;;;;;;7.25;3.35;;;;;;;29.95;38.27;100536.03;5295681;27;20065;-81
2021/08/22 06:14:01;;;;;;;6.35;3.17;;;;;;;30.64;36.62;100545.50;5298226;27;20421;-81
2021/08/22 06:16:28;;;;;;;5.05;3.05;;;;;;;31.16;33.40;100538.19;5296327;27;20446;-81
2021/08/22 06:18:57;;;;;;;4.15;2.90;;;;;;;31.48;32.20;100540.72;5314689;27;20125;-82
2021/08/22 06:21:25;;;;;;;5.30;3.17;;;;;;;31.84;31.67;100546.47;5296712;27;20128;-83
2021/08/22 06:23:53;;;;;;;4.85;3.12;;;;;;;32.39;30.51;100538.59;5296506;27;20068;-82
2021/08/22 06:26:20;;;;;;;5.15;2.92;;;;;;;32.51;30.22;100542.88;5298042;27;20092;-81
2021/08/22 06:28:47;;;;;;;3.72;2.50;;;;;;;32.35;31.01;100537.12;5297925;27;20125;-82
2021/08/22 06:31:14;;;;;;;4.78;3.20;;;;;;;32.52;31.76;100543.72;5298067;27;20076;-82
2021/08/22 06:33:40;;;;;;;5.35;3.10;;;;;;;32.77;31.59;100537.63;5298097;27;20057;-82
2021/08/22 06:36:08;;;;;;;6.00;3.12;;;;;;;32.96;30.78;100530.38;5297900;27;20065;-82
2021/08/22 06:38:35;;;;;;;4.60;3.05;;;;;;;33.04;30.28;100529.69;5298009;27;20497;-81
2021/08/22 06:41:01;;;;;;;7.25;2.92;;;;;;;32.61;31.14;100528.37;5298016;27;20057;-83
2021/08/22 06:43:28;;;;;;;4.30;3.10;;;;;;;32.72;32.00;100525.50;5297847;27;20088;-83
2021/08/22 06:45:55;;;;;;;4.50;2.90;;;;;;;32.98;31.96;100533.81;5297880;27;20124;-82
2021/08/22 06:48:22;;;;;;;4.10;3.00;;;;;;;33.16;31.98;100526.59;5298165;27;20205;-83
2021/08/22 06:50:50;;;;;;;6.28;3.20;;;;;;;33.48;31.20;100530.69;5297951;27;20419;-84
2021/08/22 06:53:17;;;;;;;4.20;2.60;;;;;;;33.46;31.86;100530.84;5297750;27;20118;-83
2021/08/22 06:55:44;;;;;;;5.68;3.45;;;;;;;33.66;31.31;100526.13;5297831;27;20080;-84
2021/08/22 06:58:11;;;;;;;5.45;2.97;;;;;;;33.51;33.11;100529.53;5295938;27;20061;-83
2021/08/22 07:00:38;;;;;;;6.40;3.47;;;;;;;33.99;31.47;100525.56;5296157;27;20127;-85
2021/08/22 07:03:05;;;;;;;7.57;2.60;;;;;;;34.09;32.15;100529.09;5295927;27;20445;-82
2021/08/22 07:05:32;;;;;;;3.92;3.00;;;;;;;34.20;31.58;100530.72;5297963;27;20301;-83
2021/08/22 07:07:59;;;;;;;4.65;3.15;;;;;;;34.31;31.64;100525.00;5297540;27;20072;-84
2021/08/22 07:10:26;;;;;;;3.65;2.75;;;;;;;34.30;31.89;100523.31;5296104;27;20069;-83
2021/08/22 07:12:53;;;;;;;3.80;3.05;;;;;;;34.36;30.69;100537.16;5297653;27;20088;-83
2021/08/22 07:15:20;;;;;;;7.50;3.15;;;;;;;34.26;31.01;100524.63;5296088;27;20099;-84
2021/08/22 07:17:47;;;;;;;5.03;3.00;;;;;;;33.99;31.63;100529.16;5297119;27;20069;-85
2021/08/22 07:20:14;;;;;;;4.47;3.00;;;;;;;33.54;32.50;100512.91;5297849;27;20074;-83
2021/08/22 07:22:41;;;;;;;3.83;2.75;;;;;;;33.35;33.03;100514.72;5295608;27;20344;-83
2021/08/22 07:25:08;;;;;;;3.83;2.92;;;;;;;33.32;32.98;100517.75;5295650;27;20049;-83
2021/08/22 07:27:35;;;;;;;6.50;2.85;;;;;;;33.39;33.89;100509.84;5295847;27;20099;-83
2021/08/22 07:30:02;;;;;;;7.37;3.28;;;;;;;33.58;33.96;100515.16;5297751;27;20073;-83
2021/08/22 07:32:29;;;;;;;3.97;3.00;;;;;;;33.90;32.55;100511.03;5295861;27;20057;-83
2021/08/22 07:34:56;;;;;;;3.80;2.90;;;;;;;33.93;32.47;100517.00;5297740;27;20049;-83
2021/08/22 07:37:23;;;;;;;5.65;3.03;;;;;;;33.71;31.97;100514.78;5295996;27;20061;-83
2021/08/22 07:39:50;;;;;;;5.07;3.17;;;;;;;32.67;33.92;100514.19;5297549;27;20061;-82
2021/08/22 07:42:17;;;;;;;4.80;3.83;;;;;;;32.25;33.97;100509.97;5295727;27;20135;-86
2021/08/22 07:44:44;;;;;;;5.32;3.55;;;;;;;30.16;38.09;100517.09;5297396;27;20157;-84
2021/08/22 07:47:11;;;;;;;6.15;3.25;;;;;;;31.06;37.35;100519.19;5295910;27;20069;-86
2021/08/22 07:49:38;;;;;;;5.37;2.87;;;;;;;31.16;37.19;100516.47;5297778;27;20124;-82
2021/08/22 07:52:05;;;;;;;5.07;3.55;;;;;;;30.73;36.28;100520.28;5297803;27;20053;-84
2021/08/22 07:54:32;;;;;;;5.32;3.50;;;;;;;30.37;38.00;100514.41;5297536;27;20547;-84
2021/08/22 07:57:00;;;;;;;5.20;2.87;;;;;;;30.83;37.78;100521.22;5296069;27;20066;-84
2021/08/22 07:59:27;;;;;;;4.62;2.97;;;;;;;31.64;37.47;100515.72;5297571;27;20112;-83
2021/08/22 08:01:54;;;;;;;5.97;3.30;;;;;;;32.54;35.58;100515.37;5297797;27;20105;-83
2021/08/22 08:04:21;;;;;;;6.18;3.42;;;;;;;33.18;35.16;100519.13;5295972;27;20064;-82
2021/08/22 08:06:48;;;;;;;4.68;2.92;;;;;;;32.66;33.26;100513.34;5296258;27;20085;-84
2021/08/22 08:09:15;;;;;;;5.05;3.03;;;;;;;32.42;32.45;100518.41;5297783;27;20466;-83
2021/08/22 08:11:42;;;;;;;4.65;3.05;;;;;;;33.20;32.20;100508.94;5297669;27;20064;-82
2021/08/22 08:14:09;;;;;;;5.68;3.03;;;;;;;33.85;30.14;100516.94;5297480;27;20062;-82
2021/08/22 08:16:36;;;;;;;4.43;2.97;;;;;;;34.60;27.97;100511.06;5297683;27;20092;-82
2021/08/22 08:19:03;;;;;;;5.97;3.12;;;;;;;35.05;26.11;100501.75;5295881;27;20379;-82
2021/08/22 08:21:30;;;;;;;5.37;3.35;;;;;;;35.57;24.43;100508.91;5296360;27;20088;-84
2021/08/22 08:23:57;;;;;;;4.65;3.10;;;;;;;35.91;24.69;100503.28;5295925;27;20071;-82
2021/08/22 08:26:24;;;;;;;4.12;2.70;;;;;;;36.26;23.66;100515.75;5297522;27;20080;-84
2021/08/22 08:28:51;;;;;;;5.25;3.03;;;;;;;36.56;23.27;100511.47;5296023;27;20207;-83
2021/08/22 08:31:18;;;;;;;5.87;3.65;;;;;;;36.49;23.78;100515.03;5296239;27;20139;-83
2021/08/22 08:33:49;;;;;;;6.68;3.40;;;;;;;36.88;24.27;100509.62;5297520;27;20096;-83
2021/08/22 08:36:16;;;;;;;4.30;3.15;;;;;;;37.28;22.92;100515.97;5296009;27;20065;-85
2021/08/22 08:38:43;;;;;;;6.65;3.25;;;;;;;37.34;23.37;100518.00;5277617;27;20065;-84
2021/08/22 08:41:10;;;;;;;3.95;2.87;;;;;;;37.33;22.41;100516.31;5296055;27;20090;-84
2021/08/22 08:43:38;;;;;;;4.43;3.05;;;;;;;36.80;24.62;100517.91;5295916;27;20057;-84
2021/08/22 08:46:09;;;;;;;3.70;2.85;;;;;;;37.38;22.84;100513.84;5297139;27;20109;-83
2021/08/22 08:48:52;;;;;;;4.80;3.53;;;;;;;37.56;21.89;100516.34;5295580;27;20072;-85
2021/08/22 08:51:46;;;;;;;8.85;3.58;;;;;;;37.46;22.52;100518.44;5297401;27;20452;-84
2021/08/22 08:54:21;;;;;;;4.37;3.20;;;;;;;37.77;22.15;100515.69;5297330;27;20643;-84
2021/08/22 08:56:48;;;;;;;4.40;3.37;;;;;;;37.52;23.52;100516.91;5299373;27;20071;-83
2021/08/22 08:59:15;;;;;;;4.32;3.17;;;;;;;36.92;24.30;100519.22;5319615;27;20060;-85
2021/08/22 09:01:42;;;;;;;4.87;3.20;;;;;;;37.08;22.67;100517.47;5299623;27;20079;-83
2021/08/22 09:04:12;;;;;;;4.50;2.85;;;;;;;37.16;22.99;100506.47;5318916;27;20083;-83
2021/08/22 09:06:59;;;;;;;5.93;3.70;;;;;;;37.48;22.90;100508.19;5300225;27;20057;-83
2021/08/22 09:10:16;;;;;;;5.47;3.47;;;;;;;37.63;23.49;100505.50;5319734;27;20135;-83
2021/08/22 09:13:28;;;;;;;3.97;3.30;;;;;;;36.87;23.86;100501.59;5299856;27;20167;-84
2021/08/22 09:15:55;;;;;;;5.65;3.42;;;;;;;37.16;24.23;100501.84;5285673;27;20420;-83
2021/08/22 09:18:59;;;;;;;4.80;3.40;;;;;;;37.48;22.70;100502.72;5319338;27;20068;-84
2021/08/22 09:22:00;;;;;;;5.68;3.90;;;;;;;37.69;24.15;100508.37;5319488;27;20060;-83
2021/08/22 09:24:30;;;;;;;3.87;3.37;;;;;;;37.97;23.00;100510.56;5319205;27;20063;-83
2021/08/22 09:27:29;;;;;;;5.43;3.42;;;;;;;38.44;21.94;100505.84;5319489;27;20071;-84
2021/08/22 09:30:33;;;;;;;13.02;4.47;;;;;;;38.32;22.27;100499.94;5255738;27;20112;-83
2021/08/22 09:33:48;;;;;;;5.55;3.53;;;;;;;38.58;22.53;100505.84;5299554;27;20505;-84
2021/08/22 09:36:24;;;;;;;5.60;3.42;;;;;;;39.21;21.40;100500.81;5235981;27;20067;-83
2021/08/22 09:39:28;;;;;;;5.18;3.87;;;;;;;39.56;21.09;100497.38;5319234;27;20120;-83
2021/08/22 09:42:04;;;;;;;5.78;3.90;;;;;;;39.08;20.24;100504.22;5299649;27;20074;-83
2021/08/22 09:44:48;;;;;;;5.18;3.60;;;;;;;39.33;21.04;100494.81;5299400;27;20159;-83
2021/08/22 09:47:53;;;;;;;5.78;3.78;;;;;;;39.15;21.02;100495.22;5299257;27;20116;-83
2021/08/22 09:50:57;;;;;;;5.43;4.00;;;;;;;39.96;20.52;100499.50;5319152;27;20063;-83
2021/08/22 09:53:39;;;;;;;9.70;3.80;;;;;;;40.17;21.36;100492.25;5319316;27;20388;-83
2021/08/22 09:56:39;;;;;;;5.55;3.67;;;;;;;40.41;19.44;100490.97;5319620;27;20060;-83
2021/08/22 09:59:31;;;;;;;8.02;3.90;;;;;;;40.70;19.17;100491.81;5299465;27;20533;-83
2021/08/22 10:02:35;;;;;;;4.22;3.67;;;;;;;39.90;20.10;100493.94;5299266;27;20409;-83
2021/08/22 10:05:16;;;;;;;4.95;3.20;;;;;;;40.08;19.01;100487.94;5299417;27;20065;-84
2021/08/22 10:08:12;;;;;;;5.28;3.60;;;;;;;40.36;19.65;100488.81;5319369;27;20394;-84
2021/08/22 10:11:16;;;;;;;6.28;3.70;;;;;;;40.40;19.93;100470.84;5307417;27;20052;-83
2021/08/22 10:13:43;;;;;;;6.45;3.83;;;;;;;40.62;19.58;100484.53;5291697;27;20124;-83
2021/08/22 10:16:30;;;;;;;6.80;3.92;;;;;;;40.83;19.03;100476.19;5302734;27;20060;-84
2021/08/22 10:19:08;;;;;;;5.97;3.65;;;;;;;41.21;18.32;100475.72;5299465;27;20136;-83
2021/08/22 10:21:36;;;;;;;4.47;3.57;;;;;;;41.32;18.61;100474.25;5299133;27;20343;-83
2021/08/22 10:24:24;;;;;;;6.73;3.53;;;;;;;41.86;18.47;100470.53;5319045;27;20088;-85
2021/08/22 10:27:00;;;;;;;;;;;;;;;41.12;18.60;100465.91;5319799;27;20088;-83
2021/08/22 10:29:28;;;;;;;6.15;4.60;;;;;;;40.80;18.24;100464.72;5317535;27;19975;-84
2021/08/22 10:31:55;;;;;;;6.15;4.43;;;;;;;40.67;18.86;100468.25;5319194;27;20083;-84
2021/08/22 10:34:23;;;;;;;6.60;4.65;;;;;;;40.28;18.96;100461.44;5299300;27;20056;-84
2021/08/22 10:36:51;;;;;;;5.85;3.47;;;;;;;40.56;19.16;100463.31;5318916;27;20056;-84
2021/08/22 10:39:22;;;;;;;4.47;4.00;;;;;;;40.75;19.59;100459.84;5319095;27;20060;-85
2021/08/22 10:41:49;;;;;;;6.05;4.43;;;;;;;40.93;18.50;100458.44;5319141;27;20115;-85
2021/08/22 10:44:37;;;;;;;7.53;3.75;;;;;;;40.56;19.43;100455.03;5318920;27;20049;-83
2021/08/22 10:47:30;;;;;;;5.55;4.00;;;;;;;39.03;20.65;100459.16;5299558;27;20695;-84
2021/08/22 10:49:58;;;;;;;8.73;4.10;;;;;;;39.97;19.43;100459.91;5318331;27;20394;-84
2021/08/22 10:52:36;;;;;;;4.43;3.80;;;;;;;39.28;20.00;100454.16;5299049;27;20132;-83
2021/08/22 10:55:12;;;;;;;5.70;3.80;;;;;;;39.33;20.43;100450.84;5319046;27;20063;-83
2021/08/22 10:57:45;;;;;;;5.07;3.72;;;;;;;39.33;21.08;100456.34;5299325;27;20580;-84
2021/08/22 11:00:34;;;;;;;6.82;3.80;;;;;;;39.14;20.60;100452.31;5320036;27;20083;-84
2021/08/22 11:03:06;;;;;;;6.97;3.83;;;;;;;39.40;19.76;100454.53;5320130;27;20058;-83
2021/08/22 11:05:37;;;;;;;5.47;3.70;;;;;;;39.19;21.31;100450.69;5299846;27;20367;-83
2021/08/22 11:08:14;;;;;;;4.87;3.80;;;;;;;39.50;21.34;100442.12;5299828;27;20139;-84
2021/08/22 11:10:58;;;;;;;9.88;5.12;;;;;;;39.08;20.24;100445.69;5319942;27;20075;-84
2021/08/22 11:13:27;;;;;;;4.97;3.92;;;;;;;38.21;20.54;100449.16;5320119;27;20151;-84
2021/08/22 11:15:54;;;;;;;;;;;;;;;39.21;20.50;100436.72;5300410;27;20053;-84
2021/08/22 11:18:21;;;;;;;4.93;3.20;;;;;;;39.22;19.41;100438.47;5300386;27;20019;-84
2021/08/22 11:20:48;;;;;;;6.28;3.53;;;;;;;38.86;21.85;100431.09;5319843;27;20699;-85
2021/08/22 11:23:18;;;;;;;6.80;3.80;;;;;;;39.59;19.79;100431.00;5300627;27;20073;-84
2021/08/22 11:25:47;;;;;;;4.05;3.53;;;;;;;40.08;19.24;100435.66;5319870;27;20067;-84
2021/08/22 11:28:18;;;;;;;7.60;3.85;;;;;;;39.55;19.66;100427.81;5319831;27;20076;-84
2021/08/22 11:30:46;;;;;;;6.12;3.67;;;;;;;39.04;21.17;100427.91;5319712;27;20061;-83
2021/08/22 11:33:14;;;;;;;5.75;3.58;;;;;;;38.15;21.33;100422.44;5319742;27;20058;-84
2021/08/22 11:35:47;;;;;;;3.67;3.20;;;;;;;38.50;21.10;100420.00;5319701;27;20049;-84
2021/08/22 11:38:15;;;;;;;4.80;3.45;;;;;;;38.98;20.21;100412.19;5299906;27;20092;-84
2021/08/22 11:40:43;;;;;;;7.82;3.20;;;;;;;39.60;20.18;100414.31;5319983;27;20060;-84